Holdridge, Nebraska
Current Conditions -  °F | °C
As of 10:55 PM on Thursday 30 Oct 2014 (Local Time) from KHDE Reporting Station
Clear Clear  
Wind Chill: 32°   Ceiling: Unl
Heat Index: 40°   Visibility: 10mi
Dew Point: 32°   Wind: 14mph
Humidity: 74%   Direction: 10°N
Pressure: 30.41"   Gusts: 18mph
Location:  40.4958°N, 99.3198°W
Report Text: KHDE 310355Z AUTO 01012G16KT 10SM CLR 04/00 A3041 RMK AO2 T00420000
Loading
Personal Weather Stations






























Interactive Weather Map New forecast layout! Learn more

10-Day Weather Forecast

Advertisements
Track Severe Weather on mobile